Time;durP1;ratioP1;P1;durP2;ratioP2;P2;SDS_P1;SDS_P2;PMS_P1;PMS_P2;Temp;Humidity;BMP_temperature;BMP_pressure;BME280_temperature;BME280_humidity;BME280_pressure;Samples;Min_cycle;Max_cycle;Signal;HPM_P1;HPM_P2
2023/08/16 00:00:48;;;;;;;2.50;0.82;;;;;;;16.64;100.00;101192.13;5013811;28;20108;-55
2023/08/16 00:03:14;;;;;;;6.28;1.55;;;;;;;16.53;100.00;101193.63;5015740;28;20053;-55
2023/08/16 00:05:42;;;;;;;2.97;1.13;;;;;;;16.44;100.00;101193.03;5017041;28;20158;-57
2023/08/16 00:08:07;;;;;;;1.88;0.90;;;;;;;16.51;100.00;101193.81;5015217;28;20128;-55
2023/08/16 00:10:33;;;;;;;1.98;0.73;;;;;;;16.61;100.00;101188.03;5017639;28;20086;-58
2023/08/16 00:12:58;;;;;;;1.23;0.70;;;;;;;16.70;100.00;101185.91;5009527;28;20049;-58
2023/08/16 00:15:26;;;;;;;1.00;0.45;;;;;;;16.72;100.00;101189.19;5015278;28;20066;-56
2023/08/16 00:17:51;;;;;;;3.15;1.40;;;;;;;16.70;100.00;101192.09;5009397;28;20037;-57
2023/08/16 00:20:17;;;;;;;2.30;1.25;;;;;;;16.73;100.00;101191.66;5009723;28;20044;-59
2023/08/16 00:22:42;;;;;;;9.35;2.67;;;;;;;16.67;100.00;101189.81;5010894;28;20026;-58
2023/08/16 00:25:08;;;;;;;10.70;2.47;;;;;;;16.56;100.00;101191.31;5015477;28;20037;-57
2023/08/16 00:27:34;;;;;;;3.08;0.70;;;;;;;16.48;100.00;101188.09;5010883;28;20074;-56
2023/08/16 00:29:59;;;;;;;1.15;0.85;;;;;;;16.19;100.00;101184.91;5014093;28;21314;-55
2023/08/16 00:32:24;;;;;;;1.60;0.50;;;;;;;16.19;100.00;101189.44;5010200;28;20022;-59
2023/08/16 00:34:50;;;;;;;2.28;1.02;;;;;;;16.11;100.00;101185.13;5015831;28;20033;-57
2023/08/16 00:37:15;;;;;;;4.93;1.35;;;;;;;16.13;100.00;101186.56;5013961;28;20025;-56
2023/08/16 00:39:40;;;;;;;1.00;1.00;;;;;;;16.15;100.00;101181.00;5016398;28;20933;-55
2023/08/16 00:42:06;;;;;;;1.38;0.80;;;;;;;16.17;100.00;101180.78;5014056;28;20051;-57
2023/08/16 00:44:31;;;;;;;2.58;1.52;;;;;;;16.18;100.00;101175.22;5016787;28;20086;-52
2023/08/16 00:46:56;;;;;;;4.13;1.20;;;;;;;16.14;100.00;101182.03;5016914;28;20041;-50
2023/08/16 00:49:22;;;;;;;1.77;0.95;;;;;;;16.15;100.00;101178.31;5013103;28;20486;-54
2023/08/16 00:51:48;;;;;;;0.90;0.77;;;;;;;16.20;100.00;101175.84;5014771;28;20026;-57
2023/08/16 00:54:13;;;;;;;1.90;1.45;;;;;;;16.12;100.00;101178.75;5018570;28;20072;-56
2023/08/16 00:56:39;;;;;;;2.70;0.77;;;;;;;15.92;100.00;101174.25;5011354;28;20037;-57
2023/08/16 00:59:05;;;;;;;2.08;0.85;;;;;;;15.89;100.00;101179.22;5020228;28;20029;-58
2023/08/16 01:01:30;;;;;;;0.77;0.57;;;;;;;15.75;100.00;101180.25;5012814;28;20553;-55
2023/08/16 01:03:56;;;;;;;1.38;0.52;;;;;;;15.74;100.00;101182.13;5016323;28;20706;-56
2023/08/16 01:06:22;;;;;;;1.17;0.70;;;;;;;15.64;100.00;101181.69;5013304;28;20045;-56
2023/08/16 01:08:47;;;;;;;1.65;0.75;;;;;;;15.58;100.00;101177.19;5012383;28;20072;-56
2023/08/16 01:11:43;;;;;;;1.75;0.85;;;;;;;15.55;100.00;101190.97;5010465;28;20156;-56
2023/08/16 01:14:15;;;;;;;1.52;0.70;;;;;;;15.54;100.00;101184.78;5015748;28;20434;-52
2023/08/16 01:16:44;;;;;;;5.70;0.85;;;;;;;15.52;100.00;101186.03;5015477;28;20510;-56
2023/08/16 01:19:13;;;;;;;1.20;0.80;;;;;;;15.38;100.00;101188.69;5014423;28;20522;-57
2023/08/16 01:21:46;;;;;;;0.95;0.80;;;;;;;15.24;100.00;101192.38;5009765;28;20044;-54
2023/08/16 01:24:37;;;;;;;3.50;1.77;;;;;;;15.22;100.00;101194.44;5015131;28;20029;-53
2023/08/16 01:27:04;;;;;;;4.07;1.95;;;;;;;15.17;100.00;101192.38;5009472;28;20029;-54
2023/08/16 01:29:30;;;;;;;3.47;1.45;;;;;;;15.09;100.00;101205.09;5012456;28;20409;-58
2023/08/16 01:31:56;;;;;;;1.20;1.02;;;;;;;14.96;100.00;101200.56;5014120;28;20028;-55
2023/08/16 01:34:21;;;;;;;2.15;0.90;;;;;;;14.96;100.00;101198.72;5015293;28;20557;-57
2023/08/16 01:36:46;;;;;;;0.70;0.70;;;;;;;14.97;100.00;101195.03;5020945;28;20087;-57
2023/08/16 01:39:12;;;;;;;1.40;0.60;;;;;;;15.01;100.00;101200.78;5020950;28;20080;-57
2023/08/16 01:41:45;;;;;;;5.55;1.00;;;;;;;15.03;100.00;101201.41;5017432;28;20040;-55
2023/08/16 01:44:12;;;;;;;2.60;0.50;;;;;;;15.08;100.00;101206.16;5017553;28;20856;-56
2023/08/16 01:46:39;;;;;;;3.78;1.10;;;;;;;15.09;100.00;101208.59;5019007;28;20045;-52
2023/08/16 01:49:05;;;;;;;9.00;1.23;;;;;;;15.01;100.00;101206.94;5021068;28;20032;-56
2023/08/16 01:51:31;;;;;;;3.85;1.38;;;;;;;14.95;100.00;101210.44;5021100;28;20029;-53
2023/08/16 01:53:57;;;;;;;1.88;0.52;;;;;;;14.86;100.00;101211.63;5015724;28;20018;-53
2023/08/16 01:56:22;;;;;;;0.70;0.43;;;;;;;14.85;100.00;101211.84;5013949;28;20156;-57
2023/08/16 01:58:48;;;;;;;5.72;0.63;;;;;;;14.89;100.00;101211.22;5021133;28;20044;-54
2023/08/16 02:01:14;;;;;;;0.20;0.20;;;;;;;14.86;100.00;101211.63;5012652;28;20479;-55
2023/08/16 02:03:40;;;;;;;1.27;0.50;;;;;;;14.81;100.00;101208.72;5019044;28;20433;-56
2023/08/16 02:06:05;;;;;;;2.55;0.55;;;;;;;14.73;100.00;101216.94;5019091;28;20026;-54
2023/08/16 02:08:30;;;;;;;0.70;0.45;;;;;;;14.60;100.00;101205.19;5012354;28;20034;-55
2023/08/16 02:10:55;;;;;;;2.05;0.57;;;;;;;14.46;100.00;101199.97;5022583;28;20021;-52
2023/08/16 02:13:21;;;;;;;0.57;0.22;;;;;;;14.36;100.00;101214.50;5010381;28;20606;-55
2023/08/16 02:15:46;;;;;;;3.95;0.50;;;;;;;14.19;100.00;101213.97;5018766;28;20053;-54
2023/08/16 02:18:12;;;;;;;2.38;1.17;;;;;;;14.22;100.00;101210.09;5018901;28;20030;-58
2023/08/16 02:20:38;;;;;;;0.73;0.57;;;;;;;14.19;100.00;101207.84;5013141;28;20063;-54
2023/08/16 02:23:05;;;;;;;2.38;1.15;;;;;;;14.13;100.00;101211.28;5014874;28;20745;-56
2023/08/16 02:25:30;;;;;;;2.35;1.13;;;;;;;14.12;100.00;101210.47;5018425;28;20482;-52
2023/08/16 02:27:55;;;;;;;1.55;1.13;;;;;;;14.12;100.00;101210.47;5015915;28;20060;-52
2023/08/16 02:30:21;;;;;;;1.00;0.77;;;;;;;14.16;100.00;101208.22;5012238;28;20128;-52
2023/08/16 02:32:46;;;;;;;0.80;0.80;;;;;;;14.27;100.00;101206.84;5020015;28;20438;-56
2023/08/16 02:35:11;;;;;;;1.85;1.05;;;;;;;14.27;100.00;101206.84;5018606;28;20490;-54
2023/08/16 02:37:38;;;;;;;0.85;0.85;;;;;;;14.14;100.00;101213.75;5019295;28;20037;-52
2023/08/16 02:40:04;;;;;;;1.42;0.98;;;;;;;14.10;100.00;101211.69;5017751;28;20025;-55
2023/08/16 02:42:29;;;;;;;4.63;0.73;;;;;;;14.06;100.00;101216.56;5017020;28;20041;-56
2023/08/16 02:44:54;;;;;;;0.90;0.35;;;;;;;14.06;100.00;101216.56;5020699;28;20453;-54
2023/08/16 02:47:20;;;;;;;0.85;0.30;;;;;;;14.03;100.00;101219.66;5014077;28;20493;-54
2023/08/16 02:49:45;;;;;;;0.90;0.60;;;;;;;14.06;100.00;101219.25;5017064;28;20269;-58
2023/08/16 02:52:10;;;;;;;1.60;0.60;;;;;;;14.05;100.00;101230.94;5015399;28;20018;-53
2023/08/16 02:54:36;;;;;;;1.10;0.32;;;;;;;13.99;100.00;101214.88;5018870;28;20044;-55
2023/08/16 02:57:01;;;;;;;1.40;0.60;;;;;;;14.04;100.00;101223.13;5013167;28;20114;-55
2023/08/16 02:59:26;;;;;;;2.15;0.93;;;;;;;14.05;100.00;101227.47;5017715;28;20035;-53
2023/08/16 03:01:52;;;;;;;0.85;0.28;;;;;;;13.92;100.00;101225.53;5022312;28;20444;-54
2023/08/16 03:04:17;;;;;;;0.55;0.50;;;;;;;13.85;100.00;101233.47;5015204;28;20058;-55
2023/08/16 03:06:42;;;;;;;0.38;0.22;;;;;;;13.85;100.00;101232.66;5018183;28;20040;-57
2023/08/16 03:09:09;;;;;;;6.30;1.40;;;;;;;13.78;100.00;101237.09;5020106;28;20518;-51
2023/08/16 03:11:34;;;;;;;0.40;0.20;;;;;;;13.75;100.00;101233.78;5013343;28;20040;-57
2023/08/16 03:13:59;;;;;;;1.02;0.88;;;;;;;13.77;100.00;101230.13;5013099;28;20097;-55
2023/08/16 03:16:25;;;;;;;2.10;0.40;;;;;;;13.75;100.00;101239.13;5017555;28;20025;-52
2023/08/16 03:18:50;;;;;;;2.47;0.73;;;;;;;13.70;100.00;101236.22;5017147;28;20646;-55
2023/08/16 03:21:15;;;;;;;2.63;0.50;;;;;;;13.72;100.00;101241.38;5022532;28;20082;-54
2023/08/16 03:23:41;;;;;;;1.95;0.47;;;;;;;13.74;100.00;101242.81;5017037;28;20491;-54
2023/08/16 03:26:06;;;;;;;2.38;0.10;;;;;;;13.74;100.00;101244.66;5020121;28;20037;-54
2023/08/16 03:28:31;;;;;;;1.40;0.40;;;;;;;13.64;100.00;101244.19;5020043;28;20034;-53
2023/08/16 03:30:57;;;;;;;3.30;0.63;;;;;;;13.61;100.00;101247.22;5016035;28;20045;-54
2023/08/16 03:33:22;;;;;;;1.48;0.30;;;;;;;13.64;100.00;101245.00;5017143;28;20034;-54
2023/08/16 03:35:47;;;;;;;0.50;0.20;;;;;;;13.71;100.00;101245.88;5012167;28;20116;-55
2023/08/16 03:38:12;;;;;;;2.88;0.22;;;;;;;13.69;100.00;101237.25;5012951;28;20439;-57
2023/08/16 03:40:38;;;;;;;2.20;0.40;;;;;;;13.69;100.00;101250.56;5021423;28;20044;-54
2023/08/16 03:43:03;;;;;;;1.48;0.20;;;;;;;13.70;100.00;101238.06;5021898;28;20033;-54
2023/08/16 03:45:28;;;;;;;1.02;0.63;;;;;;;13.71;100.00;101247.72;5019643;28;20069;-52
2023/08/16 03:47:56;;;;;;;3.78;0.70;;;;;;;13.64;100.00;101245.00;5021183;28;20068;-50
2023/08/16 03:50:21;;;;;;;0.93;0.35;;;;;;;13.60;100.00;101249.03;5023505;28;20116;-57
2023/08/16 03:52:47;;;;;;;3.75;0.22;;;;;;;13.53;100.00;101248.19;5020637;28;20125;-55
2023/08/16 03:55:12;;;;;;;0.40;0.32;;;;;;;13.53;100.00;101256.19;5011448;28;20038;-54
2023/08/16 03:57:37;;;;;;;0.45;0.20;;;;;;;13.53;100.00;101257.00;5017884;28;20067;-55
2023/08/16 04:00:08;;;;;;;4.22;0.95;;;;;;;13.53;100.00;101258.84;5018348;28;20025;-55
2023/08/16 04:02:33;;;;;;;0.40;0.20;;;;;;;13.53;100.00;101264.19;5018997;28;20570;-55
2023/08/16 04:05:08;;;;;;;0.35;0.17;;;;;;;13.46;100.00;101260.63;5020452;28;20044;-57
2023/08/16 04:07:33;;;;;;;2.05;0.30;;;;;;;13.41;100.00;101261.19;5017116;28;20079;-53
2023/08/16 04:09:59;;;;;;;0.57;0.15;;;;;;;13.37;100.00;101256.41;5013720;28;20049;-53
2023/08/16 04:12:24;;;;;;;1.38;0.57;;;;;;;13.35;100.00;101261.97;5018704;28;20042;-58
2023/08/16 04:14:49;;;;;;;0.43;0.30;;;;;;;13.40;100.00;101258.69;5020271;28;20587;-58
2023/08/16 04:17:15;;;;;;;0.65;0.20;;;;;;;13.43;100.00;101269.00;5020088;28;20025;-54
2023/08/16 04:19:40;;;;;;;1.95;0.40;;;;;;;13.46;100.00;101257.94;5015541;28;20030;-57
2023/08/16 04:22:05;;;;;;;0.30;0.30;;;;;;;13.42;100.00;101262.00;5018702;28;20117;-56
2023/08/16 04:24:31;;;;;;;1.00;0.77;;;;;;;13.38;100.00;101266.09;5010894;28;20060;-53
2023/08/16 04:26:56;;;;;;;0.40;0.20;;;;;;;13.29;100.00;101263.53;5019753;28;20537;-57
2023/08/16 04:29:21;;;;;;;0.63;0.50;;;;;;;13.30;100.00;101265.19;5013170;28;20141;-58
2023/08/16 04:31:47;;;;;;;0.43;0.43;;;;;;;13.27;100.00;101265.56;5016855;28;20061;-58
2023/08/16 04:34:12;;;;;;;0.50;0.45;;;;;;;13.22;100.00;101267.94;5028082;28;20021;-54
2023/08/16 04:36:38;;;;;;;0.60;0.08;;;;;;;13.16;100.00;101274.00;5021993;28;20112;-56
2023/08/16 04:39:03;;;;;;;0.40;0.40;;;;;;;13.17;100.00;101277.50;5017989;28;20040;-55
2023/08/16 04:41:28;;;;;;;0.85;0.38;;;;;;;13.21;100.00;101270.78;5020783;28;20040;-56
2023/08/16 04:43:54;;;;;;;0.68;0.17;;;;;;;13.24;100.00;101276.56;5017786;28;20057;-55
2023/08/16 04:46:19;;;;;;;0.40;0.40;;;;;;;13.24;100.00;101270.41;5018542;28;20479;-57
2023/08/16 04:48:45;;;;;;;1.10;0.95;;;;;;;13.19;100.00;101271.00;5016422;28;20483;-55
2023/08/16 04:51:10;;;;;;;1.35;0.20;;;;;;;13.09;100.00;101278.47;5019634;28;20058;-57
2023/08/16 04:53:35;;;;;;;0.85;0.77;;;;;;;12.97;100.00;101279.94;5019858;28;20029;-56
2023/08/16 04:56:01;;;;;;;0.25;0.22;;;;;;;12.87;100.00;101282.91;5013285;28;20554;-58
2023/08/16 04:58:26;;;;;;;4.22;0.98;;;;;;;12.83;100.00;101293.09;5022232;28;20029;-54
2023/08/16 05:00:51;;;;;;;0.77;0.20;;;;;;;12.85;100.00;101296.38;5021450;28;20028;-54
2023/08/16 05:03:17;;;;;;;1.25;1.08;;;;;;;12.88;100.00;101297.84;5012615;28;20048;-57
2023/08/16 05:05:42;;;;;;;2.33;0.68;;;;;;;12.86;100.00;101300.72;5021501;28;20045;-57
2023/08/16 05:08:08;;;;;;;0.70;0.20;;;;;;;12.87;100.00;101299.69;5020567;28;20560;-56
2023/08/16 05:10:33;;;;;;;0.30;0.30;;;;;;;12.87;100.00;101302.34;5010280;28;20038;-57
2023/08/16 05:12:58;;;;;;;2.72;0.85;;;;;;;12.88;100.00;101301.34;5016052;28;20025;-57
2023/08/16 05:15:24;;;;;;;0.82;0.55;;;;;;;12.92;100.00;101300.97;5016766;28;20056;-54
2023/08/16 05:17:49;;;;;;;0.68;0.25;;;;;;;12.97;100.00;101306.56;5021658;28;20057;-54
2023/08/16 05:20:14;;;;;;;0.40;0.20;;;;;;;12.97;100.00;101301.25;5015751;28;20094;-53
2023/08/16 05:22:40;;;;;;;0.40;0.00;;;;;;;12.96;100.00;101310.22;5017533;28;20032;-52
2023/08/16 05:25:06;;;;;;;0.52;0.40;;;;;;;12.93;100.00;101308.75;5019484;28;20057;-55
2023/08/16 05:27:31;;;;;;;0.82;0.80;;;;;;;13.00;100.00;101309.66;5012701;28;20071;-53
2023/08/16 05:29:56;;;;;;;0.30;0.30;;;;;;;13.06;100.00;101313.41;5009312;28;20537;-53
2023/08/16 05:32:22;;;;;;;0.35;0.30;;;;;;;13.09;100.00;101307.75;5016104;28;20043;-57
2023/08/16 05:34:47;;;;;;;0.73;0.50;;;;;;;13.12;100.00;101298.56;5015116;28;20029;-57
2023/08/16 05:37:12;;;;;;;0.10;0.10;;;;;;;13.13;100.00;101306.34;5017512;28;20053;-54
2023/08/16 05:39:39;;;;;;;0.45;0.45;;;;;;;13.19;100.00;101305.59;5017696;28;20112;-56
2023/08/16 05:42:05;;;;;;;0.68;0.63;;;;;;;13.14;100.00;101307.16;5016690;28;20097;-55
2023/08/16 05:44:30;;;;;;;0.55;0.47;;;;;;;13.18;100.00;101311.09;5019445;28;20108;-55
2023/08/16 05:46:55;;;;;;;2.40;0.75;;;;;;;13.18;100.00;101314.59;5012898;28;20033;-53
2023/08/16 05:49:21;;;;;;;1.38;0.50;;;;;;;13.25;100.00;101317.34;5019856;28;20036;-55
2023/08/16 05:51:46;;;;;;;0.50;0.20;;;;;;;13.35;100.00;101322.41;5016052;28;20343;-54
2023/08/16 05:54:12;;;;;;;0.60;0.30;;;;;;;13.40;100.00;101320.81;5022463;28;20061;-55
2023/08/16 05:56:37;;;;;;;0.40;0.10;;;;;;;13.42;100.00;101320.59;5022616;28;20112;-57
2023/08/16 05:59:03;;;;;;;0.45;0.32;;;;;;;13.38;100.00;101317.50;5021143;28;20057;-57
2023/08/16 06:01:28;;;;;;;4.25;0.75;;;;;;;13.46;100.00;101319.22;5019531;28;20057;-53
2023/08/16 06:03:54;;;;;;;6.35;1.35;;;;;;;13.55;100.00;101326.06;5020360;28;20038;-55
2023/08/16 06:06:19;;;;;;;3.65;0.43;;;;;;;13.62;100.00;101328.81;5017075;28;20033;-56
2023/08/16 06:08:44;;;;;;;4.95;0.20;;;;;;;13.66;100.00;101316.75;5021107;28;20040;-57
2023/08/16 06:11:10;;;;;;;0.10;0.10;;;;;;;13.75;100.00;101329.75;5017363;28;20136;-57
2023/08/16 06:13:35;;;;;;;0.88;0.88;;;;;;;13.82;100.00;101326.34;5026348;28;20459;-52
2023/08/16 06:16:00;;;;;;;2.05;0.70;;;;;;;13.86;100.00;101325.75;5020598;28;20037;-57
2023/08/16 06:18:26;;;;;;;1.95;0.28;;;;;;;13.98;100.00;101326.06;5013299;28;20224;-56
2023/08/16 06:20:51;;;;;;;2.35;0.47;;;;;;;14.12;100.00;101321.63;5017470;28;20045;-54
2023/08/16 06:23:16;;;;;;;1.27;0.57;;;;;;;14.26;100.00;101319.91;5021784;28;20405;-57
2023/08/16 06:25:42;;;;;;;1.38;0.25;;;;;;;14.36;100.00;101328.38;5019888;28;20029;-57
2023/08/16 06:28:07;;;;;;;3.47;0.65;;;;;;;14.52;100.00;101325.41;5025356;28;20047;-55
2023/08/16 06:30:32;;;;;;;1.23;1.05;;;;;;;14.69;100.00;101322.44;5024488;28;20025;-54
2023/08/16 06:32:58;;;;;;;2.75;1.08;;;;;;;14.79;100.00;101322.91;5019880;28;20045;-55
2023/08/16 06:35:24;;;;;;;2.33;0.65;;;;;;;14.91;100.00;101321.31;5017744;28;20113;-53
2023/08/16 06:37:50;;;;;;;6.32;0.75;;;;;;;15.03;100.00;101319.72;5024940;28;20057;-54
2023/08/16 06:40:16;;;;;;;0.63;0.60;;;;;;;15.18;100.00;101314.25;5018102;28;20041;-54
2023/08/16 06:42:41;;;;;;;1.52;0.73;;;;;;;15.37;100.00;101323.31;5021886;28;20028;-55
2023/08/16 06:45:08;;;;;;;0.65;0.57;;;;;;;15.57;100.00;101318.03;5021347;28;20041;-56
2023/08/16 06:47:33;;;;;;;3.92;1.40;;;;;;;15.77;100.00;101314.56;5016023;28;20033;-55
2023/08/16 06:49:58;;;;;;;0.38;0.22;;;;;;;16.00;100.00;101319.50;5020881;28;20022;-54
2023/08/16 06:52:24;;;;;;;0.45;0.40;;;;;;;16.38;100.00;101322.34;5027717;28;20104;-56
2023/08/16 06:54:49;;;;;;;3.55;0.50;;;;;;;16.72;100.00;101318.53;5024203;28;20467;-58
2023/08/16 06:57:14;;;;;;;2.17;0.32;;;;;;;17.10;100.00;101323.16;5021705;28;20026;-58
2023/08/16 06:59:41;;;;;;;0.55;0.30;;;;;;;17.38;100.00;101319.31;5016871;28;20025;-56
2023/08/16 07:02:08;;;;;;;0.70;0.35;;;;;;;17.51;100.00;101313.03;5017902;28;20044;-57
2023/08/16 07:04:33;;;;;;;2.63;0.43;;;;;;;17.54;100.00;101326.81;5023971;28;20060;-55
2023/08/16 07:06:58;;;;;;;0.30;0.20;;;;;;;17.79;100.00;101323.38;5017961;28;20126;-54
2023/08/16 07:09:24;;;;;;;0.52;0.10;;;;;;;17.91;100.00;101327.00;5015084;28;20029;-56
2023/08/16 07:11:49;;;;;;;0.30;0.28;;;;;;;17.94;100.00;101334.63;5016713;28;20442;-54
2023/08/16 07:14:15;;;;;;;0.65;0.20;;;;;;;18.23;100.00;101333.13;5020085;28;20068;-57
2023/08/16 07:16:40;;;;;;;0.95;0.30;;;;;;;18.41;100.00;101324.28;5025423;28;20068;-57
2023/08/16 07:19:08;;;;;;;2.38;0.45;;;;;;;18.68;100.00;101327.47;5019241;28;20040;-59
2023/08/16 07:21:35;;;;;;;2.95;0.68;;;;;;;18.63;100.00;101330.00;5014447;28;21274;-56
2023/08/16 07:24:00;;;;;;;1.27;0.10;;;;;;;18.68;100.00;101326.66;5018293;28;20033;-56
2023/08/16 07:26:25;;;;;;;0.30;0.30;;;;;;;18.85;100.00;101326.91;5017703;28;20035;-58
2023/08/16 07:28:51;;;;;;;2.63;0.10;;;;;;;18.95;100.00;101328.03;5023034;28;20115;-56
2023/08/16 07:31:16;;;;;;;0.57;0.17;;;;;;;19.20;100.00;101329.75;5018775;28;20043;-55
2023/08/16 07:33:41;;;;;;;1.20;0.25;;;;;;;19.52;100.00;101324.97;5011233;28;20026;-58
2023/08/16 07:36:07;;;;;;;2.05;0.55;;;;;;;19.50;100.00;101323.56;5018284;28;20137;-59
2023/08/16 07:38:33;;;;;;;0.20;0.10;;;;;;;19.70;100.00;101334.88;5013709;28;20029;-59
2023/08/16 07:40:59;;;;;;;4.45;0.45;;;;;;;19.86;100.00;101330.69;5015342;28;20395;-57
2023/08/16 07:43:24;;;;;;;2.00;0.25;;;;;;;19.98;100.00;101328.84;5019131;28;20034;-60
2023/08/16 07:45:53;;;;;;;1.50;0.28;;;;;;;20.00;100.00;101331.28;5019980;28;20090;-57
2023/08/16 07:48:19;;;;;;;4.47;0.20;;;;;;;20.30;100.00;101327.66;5022170;28;20410;-57
2023/08/16 07:50:45;;;;;;;0.52;0.30;;;;;;;20.45;100.00;101336.91;5018810;28;20033;-56
2023/08/16 07:53:11;;;;;;;3.55;0.17;;;;;;;20.41;100.00;101326.81;5021430;28;20025;-60
2023/08/16 07:55:36;;;;;;;2.38;0.32;;;;;;;20.51;100.00;101327.03;5013415;28;20502;-60
2023/08/16 07:58:02;;;;;;;2.08;0.20;;;;;;;20.69;100.00;101326.91;5013979;28;20766;-57
2023/08/16 08:00:29;;;;;;;3.17;0.63;;;;;;;20.89;100.00;101318.44;5017111;28;20570;-58
2023/08/16 08:02:54;;;;;;;1.60;0.32;;;;;;;20.94;100.00;101322.31;5018970;28;20518;-59
2023/08/16 08:05:21;;;;;;;0.95;0.20;;;;;;;21.12;100.00;101319.41;4988840;28;20025;-56
2023/08/16 08:07:47;;;;;;;2.90;0.30;;;;;;;21.23;100.00;101320.44;4995141;28;20080;-57
2023/08/16 08:10:14;;;;;;;1.75;0.63;;;;;;;21.33;100.00;101310.63;5010001;28;20052;-57
2023/08/16 08:12:39;;;;;;;1.58;0.43;;;;;;;21.48;100.00;101318.22;5010826;28;20033;-59
2023/08/16 08:15:05;;;;;;;0.95;0.35;;;;;;;21.61;100.00;101324.34;5013507;28;20033;-58
2023/08/16 08:17:30;;;;;;;4.40;1.15;;;;;;;21.70;100.00;101321.00;5004695;28;20055;-59
2023/08/16 08:19:55;;;;;;;0.57;0.57;;;;;;;21.73;100.00;101320.50;5008580;28;20041;-56
2023/08/16 08:22:21;;;;;;;0.38;0.30;;;;;;;21.95;100.00;101312.50;5008391;28;20033;-62
2023/08/16 08:24:46;;;;;;;2.50;0.50;;;;;;;22.05;100.00;101322.66;5008578;28;20032;-61
2023/08/16 08:27:11;;;;;;;3.72;0.30;;;;;;;22.09;100.00;101314.84;5014414;28;20033;-58
2023/08/16 08:29:38;;;;;;;1.77;0.10;;;;;;;22.19;100.00;101312.34;5005666;28;20026;-58
2023/08/16 08:32:04;;;;;;;2.10;0.10;;;;;;;22.41;100.00;101315.09;5006311;28;20202;-54
2023/08/16 08:34:29;;;;;;;0.28;0.15;;;;;;;22.56;100.00;101304.47;5010137;28;20414;-58
2023/08/16 08:36:54;;;;;;;0.88;0.20;;;;;;;22.71;100.00;101306.53;5012295;28;20029;-57
2023/08/16 08:39:21;;;;;;;3.22;0.30;;;;;;;22.78;100.00;101309.06;5010148;28;20041;-55
2023/08/16 08:41:47;;;;;;;0.47;0.35;;;;;;;22.90;100.00;101312.44;5004060;28;20534;-57
2023/08/16 08:44:15;;;;;;;4.70;0.47;;;;;;;22.93;100.00;101321.94;4997924;28;20041;-57
2023/08/16 08:46:41;;;;;;;0.95;0.20;;;;;;;22.87;100.00;101318.34;5010758;28;20120;-61
2023/08/16 08:49:07;;;;;;;1.85;0.55;;;;;;;23.00;100.00;101317.16;5005185;28;20368;-56
2023/08/16 08:51:35;;;;;;;1.42;0.20;;;;;;;23.21;100.00;101316.34;5012512;28;20445;-58
2023/08/16 08:54:00;;;;;;;3.67;0.55;;;;;;;23.29;100.00;101321.28;5007419;28;20057;-55
2023/08/16 08:56:27;;;;;;;1.20;0.13;;;;;;;23.29;100.00;101326.69;5013786;28;20163;-60
2023/08/16 08:58:52;;;;;;;5.03;0.35;;;;;;;23.45;100.00;101319.53;5012541;28;20448;-57
2023/08/16 09:01:20;;;;;;;0.80;0.28;;;;;;;23.71;100.00;101325.16;5007049;28;20049;-58
2023/08/16 09:03:46;;;;;;;0.73;0.10;;;;;;;23.90;100.00;101320.19;5013451;28;20248;-58
2023/08/16 09:06:13;;;;;;;1.27;0.15;;;;;;;23.98;100.00;101318.88;5011554;28;20037;-57
2023/08/16 09:08:41;;;;;;;1.27;0.75;;;;;;;24.10;100.00;101305.97;5016553;28;20037;-58
2023/08/16 09:11:07;;;;;;;1.65;0.30;;;;;;;24.25;100.00;101307.97;5009999;28;20465;-55
2023/08/16 09:13:32;;;;;;;0.52;0.20;;;;;;;24.27;100.00;101320.16;5005328;28;20120;-60
2023/08/16 09:16:00;;;;;;;3.13;0.63;;;;;;;24.22;100.00;101316.63;5008824;28;20488;-58
2023/08/16 09:18:27;;;;;;;1.25;0.20;;;;;;;24.34;100.00;101317.22;5013108;28;20029;-59
2023/08/16 09:20:52;;;;;;;2.53;0.10;;;;;;;24.50;100.00;101316.25;5006359;28;20048;-61
2023/08/16 09:23:18;;;;;;;1.85;0.30;;;;;;;24.55;100.00;101316.28;5012509;28;20848;-59
2023/08/16 09:25:47;;;;;;;0.47;0.10;;;;;;;24.61;100.00;101317.13;5012095;28;20038;-57
2023/08/16 09:28:14;;;;;;;0.43;0.00;;;;;;;24.63;100.00;101322.25;5005951;28;20022;-59
2023/08/16 09:30:41;;;;;;;0.73;0.10;;;;;;;24.79;100.00;101305.78;5005674;28;20049;-57
2023/08/16 09:33:07;;;;;;;1.05;0.00;;;;;;;24.74;100.00;101299.53;4997280;28;20037;-58
2023/08/16 09:35:34;;;;;;;0.70;0.03;;;;;;;24.83;100.00;101302.53;5018215;28;20453;-59
2023/08/16 09:38:00;;;;;;;0.73;0.30;;;;;;;25.13;100.00;101305.34;5017273;28;20548;-58
2023/08/16 09:40:26;;;;;;;0.68;0.57;;;;;;;25.08;100.00;101305.31;5017600;28;20771;-59
2023/08/16 09:42:59;;;;;;;1.20;0.10;;;;;;;25.25;100.00;101305.13;5019744;28;20034;-59
2023/08/16 09:45:32;;;;;;;1.08;0.10;;;;;;;25.32;100.00;101299.41;5009912;28;20033;-58
2023/08/16 09:48:00;;;;;;;2.58;0.10;;;;;;;25.32;100.00;101302.13;5014419;28;20041;-58
2023/08/16 09:50:27;;;;;;;1.65;0.10;;;;;;;25.43;100.00;101299.16;5013572;28;20029;-56
2023/08/16 09:52:52;;;;;;;2.40;0.20;;;;;;;25.51;100.00;101300.53;5018658;28;20509;-59
2023/08/16 09:55:30;;;;;;;0.90;0.28;;;;;;;25.68;100.00;101301.06;5016398;28;20037;-56
2023/08/16 09:57:58;;;;;;;3.13;0.05;;;;;;;25.86;100.00;101299.72;5017669;28;20029;-59
2023/08/16 10:00:25;;;;;;;0.65;0.22;;;;;;;25.93;100.00;101304.88;5018839;28;20034;-58
2023/08/16 10:02:52;;;;;;;0.85;0.52;;;;;;;26.03;100.00;101301.34;5012160;28;20049;-59
2023/08/16 10:05:17;;;;;;;0.10;0.10;;;;;;;25.94;100.00;101302.97;5017474;28;20172;-58
2023/08/16 10:07:47;;;;;;;0.10;0.08;;;;;;;25.75;100.00;101289.94;5017640;28;20037;-59
2023/08/16 10:10:13;;;;;;;0.75;0.03;;;;;;;25.66;100.00;101291.56;5014294;28;20091;-58
2023/08/16 10:12:38;;;;;;;2.10;0.10;;;;;;;25.73;100.00;101297.53;5018788;28;20045;-59
2023/08/16 10:15:04;;;;;;;1.55;0.10;;;;;;;25.80;100.00;101295.34;5016703;28;20533;-59
2023/08/16 10:17:32;;;;;;;0.55;0.43;;;;;;;26.00;100.00;101293.75;5016914;28;20041;-52
2023/08/16 10:20:04;;;;;;;4.47;0.38;;;;;;;26.27;100.00;101285.22;5013592;28;20399;-57
2023/08/16 10:22:38;;;;;;;0.40;0.15;;;;;;;26.51;100.00;101286.25;5017887;28;20054;-58
2023/08/16 10:25:11;;;;;;;1.92;0.45;;;;;;;26.55;100.00;101281.06;5018221;28;20311;-60
2023/08/16 10:27:38;;;;;;;0.45;0.22;;;;;;;26.79;100.00;101267.63;5018890;28;20084;-59
2023/08/16 10:30:07;;;;;;;0.65;0.10;;;;;;;26.87;100.00;101271.66;5011190;28;20037;-54
2023/08/16 10:32:36;;;;;;;3.00;0.82;;;;;;;26.79;100.00;101273.06;5015117;28;20056;-59
2023/08/16 10:35:02;;;;;;;1.27;0.20;;;;;;;26.74;100.00;101268.47;5018545;28;20033;-58
2023/08/16 10:37:28;;;;;;;0.38;0.10;;;;;;;26.69;100.00;101260.34;5017356;28;20064;-58
2023/08/16 10:39:53;;;;;;;1.30;0.10;;;;;;;26.94;100.00;101277.59;5013289;28;20582;-58
2023/08/16 10:42:25;;;;;;;1.48;0.25;;;;;;;26.92;98.13;101269.72;5012769;28;20048;-58
2023/08/16 10:44:51;;;;;;;0.90;0.20;;;;;;;27.09;99.06;101271.25;5013378;28;20152;-58
2023/08/16 10:47:29;;;;;;;1.10;0.00;;;;;;;27.00;96.23;101264.78;5012953;28;20079;-59
2023/08/16 10:49:55;;;;;;;1.13;0.80;;;;;;;27.19;98.27;101266.56;5012472;28;20393;-59
2023/08/16 10:52:30;;;;;;;1.13;0.10;;;;;;;27.19;97.59;101274.75;5015136;28;20100;-59
2023/08/16 10:54:55;;;;;;;1.65;0.10;;;;;;;27.12;98.34;101267.97;5014586;28;20095;-58
2023/08/16 10:57:25;;;;;;;3.92;0.17;;;;;;;27.37;96.19;101270.53;5013955;28;20140;-60
2023/08/16 11:00:05;;;;;;;1.52;0.00;;;;;;;27.61;95.92;101269.78;5011205;28;20477;-59
2023/08/16 11:02:32;;;;;;;1.63;0.10;;;;;;;27.44;97.40;101275.63;5009155;28;20530;-59
2023/08/16 11:04:59;;;;;;;1.67;0.10;;;;;;;27.80;95.17;101275.31;5015860;28;20022;-59
2023/08/16 11:07:27;;;;;;;2.83;0.20;;;;;;;27.97;95.94;101275.72;5007868;28;20087;-61
2023/08/16 11:09:52;;;;;;;0.52;0.35;;;;;;;28.10;95.28;101278.84;5007052;28;20034;-60
2023/08/16 11:12:17;;;;;;;0.05;0.05;;;;;;;28.45;94.21;101273.00;5012957;28;20063;-58